Corsicana, TX (75110)

12:27 PM CST on November 27, 2014 (GMT -0600)
Carol Ave | Change Station
CLOSE
Current Station
Personal Weather Station
Location: Corsicana, TX
Elevation: 460 ft
Nearby Weather Stations

Elev 460 ft 32.12 °N, 96.49 °W | Updated 12 minutes ago

Clear
Clear
55.4 °F
Feels Like 55.4 °F
N
2.0
Wind Variable Wind from NW
Gusts 10.0 mph

Today
High -- | Low -- °F
--% Chance of Precip.
Yesterday
High -- | Low -- °F
Precip. -- in
7:05 AM 5:21 PM
Waxing Crescent, 31% visible
Pressure 30.52 in
Visibility 10.0 miles
Clouds Clear
Dew Point 29 °F
Humidity 37%
Rainfall 0.00 in
Snow Depth Not available.
UV 4 out of 12
Pollen 5.20 out of 12
Air Quality Not available.
Flu Activity Not available.
METAR KCRS 271753Z AUTO 05007KT 010V090 10SM CLR 13/M04 A3052 RMK AO2 SLP333 T01331044 10133 20028 58009

More Conditions Fewer Conditions

Pressure 30.52 in
Visibility 10.0 miles
Clouds Clear
Dew Point 29 °F
Humidity 37%
Rainfall 0.00 in
Snow Depth Not available.
UV 4 out of 12
Pollen 5.20 out of 12
Air Quality Not available.
Flu Activity Not available.
METAR KCRS 271753Z AUTO 05007KT 010V090 10SM CLR 13/M04 A3052 RMK AO2 SLP333 T01331044 10133 20028 58009

More Conditions Fewer Conditions

10-Day Weather Forecast

Almanac

Astronomy

Nov. 27, 2014 Rise Set
Actual Time
Civil Twilight
Nautical Twilight
Astronomical Twilight
Moon
Length of Visible Light
Length of Day
Tomorrow will be .
, % of the Moon is Illuminated

Today's Extremes

State Highs State Lows

Community

WunderPhotos

Upload Photos

1,774,079 photos uploaded!

WunderBlogs® & News

Nearby

Air Quality

  Air Quality AQ Index Pollutant
Not available.

Snow Depth

Station Depth Elevation

Earthquake Activity

City Distance Mag. Time & Date
Minimum magnitude displayed is 2.5.

Coastal Water Temperatures

Place Temperature

Nearby Weather Stations